Time;durP1;ratioP1;P1;durP2;ratioP2;P2;SDS_P1;SDS_P2;PMS_P1;PMS_P2;Temp;Humidity;BMP_temperature;BMP_pressure;BME280_temperature;BME280_humidity;BME280_pressure;Samples;Min_cycle;Max_cycle;Signal;HPM_P1;HPM_P2
2021/10/15 00:00:07;;;;;;;4.55;3.65;;;5.30;99.90;;;;;;496907;239;27481;-75
2021/10/15 00:02:08;;;;;;;3.92;3.60;;;5.30;99.90;;;;;;496947;236;27508;-76
2021/10/15 00:04:09;;;;;;;4.18;3.78;;;5.30;99.90;;;;;;496966;239;27371;-75
2021/10/15 00:06:11;;;;;;;4.93;4.10;;;5.40;99.90;;;;;;496929;239;27497;-75
2021/10/15 00:08:12;;;;;;;3.90;3.60;;;5.40;99.90;;;;;;496951;239;27375;-75
2021/10/15 00:10:13;;;;;;;3.78;3.47;;;5.40;99.90;;;;;;496933;239;27412;-75
2021/10/15 00:12:14;;;;;;;6.35;3.20;;;5.30;99.90;;;;;;496943;239;27505;-75
2021/10/15 00:14:16;;;;;;;4.07;3.67;;;5.30;99.90;;;;;;496968;239;27376;-75
2021/10/15 00:16:17;;;;;;;4.05;3.65;;;5.30;99.90;;;;;;496975;239;27986;-75
2021/10/15 00:18:18;;;;;;;3.97;3.53;;;5.20;99.90;;;;;;496970;239;27919;-75
2021/10/15 00:20:19;;;;;;;4.47;3.67;;;5.20;99.90;;;;;;496547;239;27402;-75
2021/10/15 00:22:21;;;;;;;3.95;3.65;;;5.00;99.90;;;;;;496979;239;27416;-76
2021/10/15 00:24:22;;;;;;;4.40;4.00;;;5.10;99.90;;;;;;496974;239;27375;-75
2021/10/15 00:26:23;;;;;;;4.40;3.83;;;5.10;99.90;;;;;;496975;239;27512;-75
2021/10/15 00:28:24;;;;;;;4.18;3.80;;;5.10;99.90;;;;;;497017;239;27392;-75
2021/10/15 00:30:26;;;;;;;4.05;3.65;;;5.10;99.90;;;;;;496951;239;27384;-75
2021/10/15 00:32:27;;;;;;;4.82;4.00;;;5.00;99.90;;;;;;497003;239;27424;-75
2021/10/15 00:34:28;;;;;;;5.28;4.12;;;5.00;99.90;;;;;;496345;239;27510;-75
2021/10/15 00:36:29;;;;;;;4.50;3.85;;;5.00;99.90;;;;;;496404;239;27993;-75
2021/10/15 00:38:31;;;;;;;5.62;4.30;;;4.90;99.90;;;;;;496791;239;28558;-74
2021/10/15 00:40:32;;;;;;;4.85;4.45;;;4.90;99.90;;;;;;496898;239;28182;-75
2021/10/15 00:42:33;;;;;;;4.72;4.25;;;4.90;99.90;;;;;;496962;239;27410;-75
2021/10/15 00:44:34;;;;;;;4.50;4.10;;;5.00;99.90;;;;;;496977;239;27407;-75
2021/10/15 00:46:36;;;;;;;4.30;3.90;;;4.90;99.90;;;;;;496950;239;27489;-75
2021/10/15 00:48:38;;;;;;;5.10;4.10;;;4.90;99.90;;;;;;496977;239;27407;-74
2021/10/15 00:50:38;;;;;;;4.18;3.78;;;4.90;99.90;;;;;;496912;239;27422;-75
2021/10/15 00:52:40;;;;;;;4.47;4.05;;;4.90;99.90;;;;;;496960;239;27471;-75
2021/10/15 00:54:41;;;;;;;4.03;3.72;;;4.90;99.90;;;;;;496954;239;27412;-75
2021/10/15 00:56:42;;;;;;;4.28;3.87;;;4.90;99.90;;;;;;496946;239;27379;-75
2021/10/15 00:58:43;;;;;;;4.12;3.72;;;4.90;99.90;;;;;;496972;239;27982;-75
2021/10/15 01:00:44;;;;;;;4.65;4.18;;;4.80;99.90;;;;;;496960;239;28012;-75
2021/10/15 01:02:46;;;;;;;5.47;3.60;;;4.80;99.90;;;;;;496951;239;27880;-75
2021/10/15 01:04:47;;;;;;;4.22;3.83;;;4.90;99.90;;;;;;496938;239;27474;-75
2021/10/15 01:06:48;;;;;;;3.70;3.40;;;4.90;99.90;;;;;;496945;239;27395;-75
2021/10/15 01:08:49;;;;;;;3.83;3.40;;;4.90;99.90;;;;;;496953;239;27478;-75
2021/10/15 01:10:51;;;;;;;3.72;3.35;;;4.80;99.90;;;;;;496966;239;27494;-75
2021/10/15 01:12:52;;;;;;;3.72;3.45;;;4.80;99.90;;;;;;497006;239;27454;-75
2021/10/15 01:14:53;;;;;;;3.47;3.17;;;4.80;99.90;;;;;;496996;239;27364;-75
2021/10/15 01:16:54;;;;;;;3.90;3.58;;;4.80;99.90;;;;;;496964;239;27379;-75
2021/10/15 01:18:56;;;;;;;3.75;3.35;;;4.90;99.90;;;;;;496983;239;27442;-75
2021/10/15 01:20:57;;;;;;;3.78;3.47;;;4.90;99.90;;;;;;496981;239;27930;-75
2021/10/15 01:22:58;;;;;;;3.50;3.20;;;4.80;99.90;;;;;;496965;239;27912;-76
2021/10/15 01:24:59;;;;;;;3.45;3.15;;;4.80;99.90;;;;;;496976;239;27555;-75
2021/10/15 01:27:01;;;;;;;3.45;3.15;;;4.80;99.90;;;;;;496960;239;27419;-75
2021/10/15 01:29:02;;;;;;;4.20;3.20;;;4.80;99.90;;;;;;496934;239;27395;-75
2021/10/15 01:31:03;;;;;;;3.40;3.10;;;4.70;99.90;;;;;;496942;239;27423;-75
2021/10/15 01:33:04;;;;;;;3.60;3.30;;;4.70;99.90;;;;;;496892;239;27501;-75
2021/10/15 01:35:06;;;;;;;3.03;2.75;;;4.70;99.90;;;;;;496969;239;27422;-75
2021/10/15 01:37:07;;;;;;;3.40;3.10;;;4.70;99.90;;;;;;496983;239;27385;-75
2021/10/15 01:39:08;;;;;;;3.95;3.40;;;4.70;99.90;;;;;;496688;239;27411;-75
2021/10/15 01:41:09;;;;;;;3.60;3.30;;;4.70;99.90;;;;;;496928;239;27918;-74
2021/10/15 01:43:11;;;;;;;3.60;3.30;;;4.70;99.90;;;;;;496921;239;27961;-75
2021/10/15 01:45:12;;;;;;;3.75;3.42;;;4.70;99.90;;;;;;496945;239;27987;-74
2021/10/15 01:47:13;;;;;;;3.50;3.20;;;4.70;99.90;;;;;;496950;239;27517;-75
2021/10/15 01:49:14;;;;;;;3.83;3.30;;;4.70;99.90;;;;;;496978;239;27407;-75
2021/10/15 01:51:16;;;;;;;3.87;3.58;;;4.70;99.90;;;;;;496982;239;27441;-74
2021/10/15 01:53:17;;;;;;;3.72;3.42;;;4.70;99.90;;;;;;496966;239;27466;-74
2021/10/15 01:55:18;;;;;;;3.95;3.55;;;4.70;99.90;;;;;;496960;239;27490;-75
2021/10/15 01:57:20;;;;;;;3.62;3.33;;;4.70;99.90;;;;;;496984;239;27446;-74
2021/10/15 01:59:22;;;;;;;3.60;3.30;;;4.70;99.90;;;;;;496977;239;27498;-74
2021/10/15 02:01:22;;;;;;;4.43;3.53;;;4.70;99.90;;;;;;496879;239;27406;-74
2021/10/15 02:03:24;;;;;;;3.50;3.20;;;4.70;99.90;;;;;;496971;239;27905;-75
2021/10/15 02:05:25;;;;;;;3.85;3.55;;;4.70;99.90;;;;;;496264;239;27971;-75
2021/10/15 02:07:26;;;;;;;3.45;3.15;;;4.70;99.90;;;;;;496999;239;27842;-74
2021/10/15 02:09:27;;;;;;;3.40;3.10;;;4.70;99.90;;;;;;496941;239;27471;-75
2021/10/15 02:11:28;;;;;;;3.10;2.90;;;4.60;99.90;;;;;;496946;239;27419;-75
2021/10/15 02:13:30;;;;;;;3.42;3.15;;;4.60;99.90;;;;;;496978;239;27460;-75
2021/10/15 02:15:31;;;;;;;3.37;3.08;;;4.60;99.90;;;;;;496977;239;27416;-75
2021/10/15 02:17:32;;;;;;;3.72;3.33;;;4.60;99.90;;;;;;496952;239;27411;-75
2021/10/15 02:19:33;;;;;;;3.47;3.20;;;4.60;99.90;;;;;;496963;239;27421;-75
2021/10/15 02:21:35;;;;;;;3.53;3.22;;;4.60;99.90;;;;;;496961;239;27756;-74
2021/10/15 02:23:36;;;;;;;4.28;3.62;;;4.70;99.90;;;;;;496970;239;27458;-74
2021/10/15 02:25:37;;;;;;;3.95;3.62;;;4.70;99.90;;;;;;496941;239;27418;-74
2021/10/15 02:27:38;;;;;;;3.60;3.30;;;4.70;99.90;;;;;;496996;239;27824;-75
2021/10/15 02:29:40;;;;;;;4.20;3.80;;;4.60;99.90;;;;;;496961;239;27981;-75
2021/10/15 02:31:41;;;;;;;4.07;3.10;;;4.60;99.90;;;;;;496974;239;28988;-74
2021/10/15 02:33:42;;;;;;;3.80;3.47;;;4.60;99.90;;;;;;496996;239;27845;-74
2021/10/15 02:35:43;;;;;;;3.55;3.25;;;4.60;99.90;;;;;;497006;239;27502;-75
2021/10/15 02:37:45;;;;;;;3.75;3.45;;;4.60;99.90;;;;;;496975;239;27450;-74
2021/10/15 02:39:46;;;;;;;3.40;3.10;;;4.60;99.90;;;;;;496907;239;27390;-75
2021/10/15 02:41:47;;;;;;;3.65;3.35;;;4.60;99.90;;;;;;496935;239;27414;-74
2021/10/15 02:43:48;;;;;;;4.07;3.30;;;4.60;99.90;;;;;;496948;239;27478;-74
2021/10/15 02:45:50;;;;;;;4.07;3.62;;;4.60;99.90;;;;;;496995;239;27520;-74
2021/10/15 02:47:51;;;;;;;3.45;3.15;;;4.50;99.90;;;;;;496983;239;27848;-74
2021/10/15 02:49:52;;;;;;;3.35;3.05;;;4.50;99.90;;;;;;496979;239;27378;-75
2021/10/15 02:51:53;;;;;;;4.15;3.83;;;4.60;99.90;;;;;;496980;239;28016;-75
2021/10/15 02:53:55;;;;;;;3.50;3.20;;;4.50;99.90;;;;;;496955;239;27989;-75
2021/10/15 02:55:56;;;;;;;3.85;3.50;;;4.60;99.90;;;;;;496973;239;27986;-75
2021/10/15 02:57:57;;;;;;;3.70;3.40;;;4.60;99.90;;;;;;496998;239;28668;-75
2021/10/15 02:59:58;;;;;;;3.92;3.53;;;4.60;99.90;;;;;;496979;239;27371;-75
2021/10/15 03:02:00;;;;;;;4.05;3.70;;;4.60;99.90;;;;;;496950;239;27611;-74
2021/10/15 03:04:01;;;;;;;4.10;3.70;;;4.60;99.90;;;;;;496967;239;27454;-74
2021/10/15 03:06:02;;;;;;;3.87;3.58;;;4.50;99.90;;;;;;496968;239;27387;-74
2021/10/15 03:08:03;;;;;;;4.47;4.07;;;4.50;99.90;;;;;;496954;239;27888;-75
2021/10/15 03:10:05;;;;;;;4.20;3.78;;;4.50;99.90;;;;;;496985;239;27495;-75
2021/10/15 03:12:06;;;;;;;5.05;4.55;;;4.50;99.90;;;;;;496939;239;27411;-75
2021/10/15 03:14:07;;;;;;;3.50;3.20;;;4.50;99.90;;;;;;496946;239;27391;-75
2021/10/15 03:16:08;;;;;;;3.60;3.30;;;4.50;99.90;;;;;;496934;239;27412;-76
2021/10/15 03:18:10;;;;;;;4.30;3.87;;;4.40;99.90;;;;;;496957;239;28121;-74
2021/10/15 03:20:11;;;;;;;3.97;3.67;;;4.40;99.90;;;;;;496943;239;27887;-74
2021/10/15 03:22:12;;;;;;;4.00;3.47;;;4.30;99.90;;;;;;496969;239;27843;-75
2021/10/15 03:24:13;;;;;;;4.35;3.95;;;4.20;99.90;;;;;;497005;239;27383;-75
2021/10/15 03:26:15;;;;;;;3.55;3.25;;;4.20;99.90;;;;;;497008;239;27410;-74
2021/10/15 03:28:16;;;;;;;3.65;3.35;;;4.20;99.90;;;;;;497050;239;27416;-75
2021/10/15 03:30:17;;;;;;;3.40;3.15;;;4.20;99.90;;;;;;497013;239;27378;-75
2021/10/15 03:32:18;;;;;;;3.55;3.25;;;4.30;99.90;;;;;;497003;239;27414;-75
2021/10/15 03:34:20;;;;;;;4.18;3.78;;;4.30;99.90;;;;;;497017;239;27493;-75
2021/10/15 03:36:21;;;;;;;4.25;3.53;;;4.20;99.90;;;;;;497014;239;27430;-75
2021/10/15 03:38:22;;;;;;;3.75;3.45;;;4.20;99.90;;;;;;496954;239;27454;-74
2021/10/15 03:40:23;;;;;;;4.37;3.97;;;4.20;99.90;;;;;;496944;239;27466;-75
2021/10/15 03:42:25;;;;;;;4.80;3.60;;;4.20;99.90;;;;;;496718;239;27886;-74
2021/10/15 03:44:26;;;;;;;3.28;2.97;;;4.20;99.90;;;;;;496874;239;28619;-75
2021/10/15 03:46:27;;;;;;;3.28;2.97;;;4.20;99.90;;;;;;496955;239;27857;-74
2021/10/15 03:48:28;;;;;;;4.00;3.58;;;4.20;99.90;;;;;;496958;239;27870;-74
2021/10/15 03:50:30;;;;;;;4.85;3.72;;;4.20;99.90;;;;;;496937;239;27467;-75
2021/10/15 03:52:31;;;;;;;3.60;3.30;;;4.20;99.90;;;;;;496974;239;27423;-74
2021/10/15 03:54:32;;;;;;;4.07;3.78;;;4.20;99.90;;;;;;496991;239;27391;-75
2021/10/15 03:56:33;;;;;;;3.58;3.28;;;4.20;99.90;;;;;;497103;239;27478;-76
2021/10/15 03:58:35;;;;;;;4.30;3.37;;;4.20;99.90;;;;;;496986;239;27423;-75
2021/10/15 04:00:36;;;;;;;3.00;2.80;;;4.30;99.90;;;;;;496981;239;28061;-75
2021/10/15 04:02:38;;;;;;;4.25;3.90;;;4.30;99.90;;;;;;497012;239;28983;-75
2021/10/15 04:04:38;;;;;;;3.70;3.40;;;4.30;99.90;;;;;;496962;239;27913;-74
2021/10/15 04:06:40;;;;;;;3.92;3.50;;;4.20;99.90;;;;;;497001;239;27371;-75
2021/10/15 04:08:41;;;;;;;4.35;3.75;;;4.10;99.90;;;;;;496950;239;27428;-74
2021/10/15 04:10:42;;;;;;;5.28;4.78;;;4.00;99.90;;;;;;496919;239;27478;-74
2021/10/15 04:12:43;;;;;;;4.30;3.90;;;4.00;99.90;;;;;;496971;239;27416;-74
2021/10/15 04:14:45;;;;;;;5.00;4.40;;;4.00;99.90;;;;;;496956;239;27436;-74
2021/10/15 04:16:46;;;;;;;4.12;3.45;;;4.00;99.90;;;;;;497022;239;27462;-74
2021/10/15 04:18:47;;;;;;;3.78;3.47;;;4.10;99.90;;;;;;496994;239;27423;-74
2021/10/15 04:20:48;;;;;;;3.95;3.60;;;4.10;99.90;;;;;;496942;239;27457;-74
2021/10/15 04:22:50;;;;;;;4.45;4.05;;;4.10;99.90;;;;;;496917;239;27477;-74
2021/10/15 04:24:51;;;;;;;3.87;3.40;;;4.10;99.90;;;;;;496963;239;27435;-73
2021/10/15 04:26:52;;;;;;;4.00;3.70;;;4.20;99.90;;;;;;496969;239;27847;-74
2021/10/15 04:28:53;;;;;;;4.00;3.60;;;4.20;99.90;;;;;;496982;239;27869;-74
2021/10/15 04:30:55;;;;;;;3.40;3.10;;;4.20;99.90;;;;;;496984;239;28676;-74
2021/10/15 04:32:56;;;;;;;3.40;3.12;;;4.20;99.90;;;;;;496992;239;27487;-74
2021/10/15 04:34:57;;;;;;;3.33;3.03;;;4.20;99.90;;;;;;496995;239;27422;-74
2021/10/15 04:36:58;;;;;;;3.30;3.00;;;4.30;99.90;;;;;;496984;239;27541;-74
2021/10/15 04:39:00;;;;;;;3.28;3.08;;;4.30;99.90;;;;;;496897;239;27498;-73
2021/10/15 04:41:01;;;;;;;3.55;3.25;;;4.30;99.90;;;;;;496598;239;27403;-74
2021/10/15 04:43:02;;;;;;;4.40;3.60;;;4.30;99.90;;;;;;496667;239;27442;-74
2021/10/15 04:45:03;;;;;;;4.30;3.55;;;4.30;99.90;;;;;;496795;239;27480;-74
2021/10/15 04:47:05;;;;;;;4.10;3.70;;;4.30;99.90;;;;;;496977;239;27383;-74
2021/10/15 04:49:06;;;;;;;3.60;3.30;;;4.30;99.90;;;;;;496974;239;27411;-74
2021/10/15 04:51:07;;;;;;;3.37;3.05;;;4.30;99.90;;;;;;496956;239;27414;-74
2021/10/15 04:53:08;;;;;;;3.80;3.25;;;4.40;99.90;;;;;;496946;239;27837;-74
2021/10/15 04:55:10;;;;;;;3.97;3.55;;;4.40;99.90;;;;;;496964;239;27906;-74
2021/10/15 04:57:11;;;;;;;3.30;3.00;;;4.40;99.90;;;;;;497009;239;27902;-74
2021/10/15 04:59:12;;;;;;;3.75;3.45;;;4.40;99.90;;;;;;497005;239;27442;-74
2021/10/15 05:01:14;;;;;;;3.42;3.12;;;4.40;99.90;;;;;;497069;239;27892;-74
2021/10/15 05:05:25;;;;;;;3.45;3.15;;;4.30;99.90;;;;;;467943;241;27892;-74
2021/10/15 05:07:25;;;;;;;4.15;3.20;;;4.30;99.90;;;;;;475907;250;29461;-74
2021/10/15 05:09:33;;;;;;;3.92;3.62;;;4.30;99.90;;;;;;476007;250;28105;-74
2021/10/15 05:11:28;;;;;;;3.42;3.20;;;4.30;99.90;;;;;;475719;250;28046;-74
2021/10/15 05:13:29;;;;;;;3.30;3.00;;;4.30;99.90;;;;;;476170;250;28107;-74
2021/10/15 05:15:30;;;;;;;3.45;3.15;;;4.30;99.90;;;;;;476164;250;27600;-74
2021/10/15 05:17:31;;;;;;;6.15;3.60;;;4.30;99.90;;;;;;476169;250;27491;-74
2021/10/15 05:19:33;;;;;;;3.40;3.20;;;4.40;99.90;;;;;;476171;250;27637;-74
2021/10/15 05:21:34;;;;;;;3.55;3.00;;;4.50;99.90;;;;;;476194;250;27650;-74
2021/10/15 05:23:35;;;;;;;4.03;3.58;;;4.60;99.90;;;;;;476164;250;27487;-74
2021/10/15 05:25:36;;;;;;;3.42;3.17;;;4.50;99.90;;;;;;476185;250;27537;-75
2021/10/15 05:27:38;;;;;;;4.30;3.90;;;4.50;99.90;;;;;;476219;250;27606;-74
2021/10/15 05:29:39;;;;;;;3.80;3.40;;;4.50;99.90;;;;;;476133;250;27535;-74
2021/10/15 05:31:40;;;;;;;3.75;3.45;;;4.50;99.90;;;;;;476201;250;27660;-74
2021/10/15 05:33:41;;;;;;;5.97;4.45;;;4.50;99.90;;;;;;476132;250;27937;-74
2021/10/15 05:35:43;;;;;;;6.57;4.95;;;4.50;99.90;;;;;;476189;250;28029;-74
2021/10/15 05:37:44;;;;;;;7.05;6.35;;;4.50;99.90;;;;;;476201;250;28835;-75
2021/10/15 05:39:45;;;;;;;9.65;7.35;;;4.60;99.90;;;;;;476154;250;27928;-74
2021/10/15 05:41:46;;;;;;;10.32;7.12;;;4.70;99.90;;;;;;476063;250;27534;-74
2021/10/15 05:43:48;;;;;;;8.02;6.57;;;4.70;99.90;;;;;;476174;250;27567;-74
2021/10/15 05:45:49;;;;;;;8.88;6.25;;;4.70;99.90;;;;;;476012;250;27542;-74
2021/10/15 05:47:50;;;;;;;8.30;6.90;;;4.80;99.90;;;;;;476165;250;27644;-74
2021/10/15 05:49:51;;;;;;;7.47;5.60;;;4.80;99.90;;;;;;476740;249;27504;-74
2021/10/15 05:52:02;;;;;;;6.80;6.10;;;4.80;99.90;;;;;;475496;249;27679;-74
2021/10/15 05:53:57;;;;;;;6.50;5.80;;;4.80;99.90;;;;;;475503;250;27504;-75
2021/10/15 05:56:06;;;;;;;6.82;5.93;;;4.90;99.90;;;;;;475980;250;27493;-74
2021/10/15 06:00:16;;;;;;;7.82;6.03;;;4.90;99.90;;;;;;476197;250;27636;-75
2021/10/15 06:02:17;;;;;;;8.32;6.43;;;5.00;99.90;;;;;;476182;250;27599;-74
2021/10/15 06:07:15;;;;;;;10.70;7.68;;;5.10;99.90;;;;;;465446;248;28219;-74
2021/10/15 06:15:20;;;;;;;12.63;7.65;;;5.20;99.90;;;;;;476178;250;27541;-74
2021/10/15 06:17:21;;;;;;;10.88;8.18;;;5.30;99.90;;;;;;476229;250;27635;-76
2021/10/15 06:19:25;;;;;;;10.55;7.20;;;5.30;99.90;;;;;;476206;250;27499;-74
2021/10/15 06:21:23;;;;;;;11.40;7.55;;;5.40;99.90;;;;;;476043;250;27529;-73
2021/10/15 06:23:25;;;;;;;9.55;7.30;;;5.40;99.90;;;;;;476193;247;28837;-73
2021/10/15 06:25:26;;;;;;;12.32;7.82;;;5.50;99.90;;;;;;476179;250;27969;-73
2021/10/15 06:27:27;;;;;;;11.05;8.68;;;5.60;99.90;;;;;;476188;250;27536;-74
2021/10/15 06:29:28;;;;;;;9.90;6.53;;;5.60;99.90;;;;;;476188;250;27582;-73
2021/10/15 06:31:30;;;;;;;6.80;5.60;;;5.60;99.90;;;;;;476207;250;27538;-74
2021/10/15 06:33:31;;;;;;;8.00;6.65;;;5.60;99.90;;;;;;476232;250;27518;-74
2021/10/15 06:35:32;;;;;;;8.10;6.20;;;5.60;99.90;;;;;;476257;250;27599;-76
2021/10/15 06:37:33;;;;;;;8.23;6.22;;;5.60;99.90;;;;;;476204;250;27709;-73
2021/10/15 06:39:35;;;;;;;8.52;6.10;;;5.60;99.90;;;;;;476194;250;27994;-74
2021/10/15 06:41:36;;;;;;;6.95;5.80;;;5.60;99.90;;;;;;476024;250;28003;-73
2021/10/15 06:43:37;;;;;;;5.82;5.15;;;5.60;99.90;;;;;;476229;250;27543;-76
2021/10/15 06:45:38;;;;;;;7.82;6.00;;;5.60;99.90;;;;;;476210;250;27528;-74
2021/10/15 06:47:40;;;;;;;9.30;6.47;;;5.60;99.90;;;;;;476188;250;27598;-74
2021/10/15 06:49:41;;;;;;;6.97;6.28;;;5.60;99.90;;;;;;476227;250;27575;-75
2021/10/15 06:51:42;;;;;;;9.70;6.35;;;5.60;99.90;;;;;;476202;249;27522;-77
2021/10/15 06:53:45;;;;;;;7.70;5.85;;;5.70;99.90;;;;;;476214;250;27556;-74
2021/10/15 06:55:45;;;;;;;7.20;5.32;;;5.70;99.90;;;;;;476072;250;27952;-73
2021/10/15 06:57:46;;;;;;;7.55;5.53;;;5.70;99.90;;;;;;476114;250;28091;-73
2021/10/15 06:59:47;;;;;;;7.55;5.55;;;5.70;99.90;;;;;;476148;250;28000;-74
2021/10/15 07:01:50;;;;;;;6.85;5.62;;;5.70;99.90;;;;;;476177;250;27596;-74
2021/10/15 07:03:50;;;;;;;6.15;5.53;;;5.70;99.90;;;;;;476077;250;27530;-74
2021/10/15 07:05:51;;;;;;;7.75;5.62;;;5.70;99.90;;;;;;476193;250;27481;-74
2021/10/15 07:07:52;;;;;;;5.85;5.25;;;5.70;99.90;;;;;;476168;250;27527;-74
2021/10/15 07:09:54;;;;;;;6.45;5.60;;;5.70;99.90;;;;;;476177;250;27522;-74
2021/10/15 07:11:55;;;;;;;6.62;5.72;;;5.80;99.90;;;;;;476237;250;27546;-76
2021/10/15 07:13:56;;;;;;;9.63;5.70;;;5.80;99.90;;;;;;476232;250;28018;-74
2021/10/15 07:15:57;;;;;;;8.57;6.00;;;5.90;99.90;;;;;;476224;250;27954;-76
2021/10/15 07:17:59;;;;;;;6.60;5.90;;;5.90;99.90;;;;;;476172;250;27625;-74
2021/10/15 07:20:00;;;;;;;6.72;5.22;;;6.00;99.90;;;;;;476156;247;27641;-74
2021/10/15 07:22:01;;;;;;;9.57;5.53;;;6.00;99.90;;;;;;476201;250;27495;-74
2021/10/15 07:24:02;;;;;;;6.28;5.20;;;6.00;99.90;;;;;;476199;250;27531;-74
2021/10/15 07:26:04;;;;;;;7.32;5.85;;;6.10;99.90;;;;;;476206;250;27631;-76
2021/10/15 07:28:05;;;;;;;7.50;5.90;;;6.10;99.90;;;;;;476190;250;28004;-74
2021/10/15 07:30:06;;;;;;;7.75;5.70;;;6.20;99.90;;;;;;476229;250;28117;-76
2021/10/15 07:32:07;;;;;;;9.10;6.12;;;6.30;99.90;;;;;;476256;250;27531;-76
2021/10/15 07:34:09;;;;;;;8.27;6.45;;;6.30;99.90;;;;;;476248;250;27646;-76
2021/10/15 07:36:10;;;;;;;8.18;5.87;;;6.40;99.90;;;;;;476255;250;27487;-77
2021/10/15 07:38:11;;;;;;;7.75;5.62;;;6.50;99.90;;;;;;476200;250;27527;-76
2021/10/15 07:40:12;;;;;;;6.55;5.62;;;6.50;99.90;;;;;;475977;250;27514;-76
2021/10/15 07:42:14;;;;;;;7.25;5.78;;;6.60;99.90;;;;;;476173;250;28002;-76
2021/10/15 07:44:15;;;;;;;7.43;5.68;;;6.60;99.90;;;;;;476189;250;27987;-77
2021/10/15 07:46:16;;;;;;;7.68;5.68;;;6.70;99.90;;;;;;476135;250;27543;-75
2021/10/15 07:48:17;;;;;;;7.53;5.93;;;6.70;99.90;;;;;;476190;250;27479;-76
2021/10/15 07:50:19;;;;;;;8.80;6.97;;;6.80;99.90;;;;;;476244;250;28840;-76
2021/10/15 07:52:20;;;;;;;10.95;7.35;;;6.90;99.90;;;;;;476275;250;27480;-77
2021/10/15 07:54:21;;;;;;;8.83;6.43;;;6.90;99.90;;;;;;476225;250;27524;-75
2021/10/15 07:56:22;;;;;;;10.25;6.70;;;7.00;99.90;;;;;;476177;247;28054;-76
2021/10/15 07:58:24;;;;;;;7.83;6.67;;;7.00;99.90;;;;;;476211;250;28019;-76
2021/10/15 08:00:25;;;;;;;8.90;6.50;;;7.10;99.90;;;;;;476252;247;29486;-76
2021/10/15 08:02:28;;;;;;;12.40;7.47;;;7.20;99.90;;;;;;476264;250;28912;-77
2021/10/15 08:04:27;;;;;;;7.60;6.43;;;7.30;99.90;;;;;;476142;250;28566;-76
2021/10/15 08:06:29;;;;;;;7.83;5.70;;;7.40;99.90;;;;;;476265;250;28071;-77
2021/10/15 08:08:30;;;;;;;7.30;5.35;;;7.50;99.90;;;;;;476254;250;27890;-76
2021/10/15 08:10:31;;;;;;;8.63;6.13;;;7.50;99.90;;;;;;476270;250;27542;-77
2021/10/15 08:12:32;;;;;;;6.67;5.87;;;7.50;99.90;;;;;;476294;250;28149;-76
2021/10/15 08:14:35;;;;;;;5.90;5.30;;;7.50;99.90;;;;;;476243;250;28011;-76
2021/10/15 08:16:35;;;;;;;6.83;6.03;;;7.50;99.90;;;;;;476197;250;28072;-76
2021/10/15 08:18:36;;;;;;;6.57;5.53;;;7.60;99.90;;;;;;476286;250;27640;-77
2021/10/15 08:20:37;;;;;;;10.40;7.00;;;7.60;99.90;;;;;;476271;250;28013;-76
2021/10/15 08:22:39;;;;;;;8.10;6.00;;;7.70;99.90;;;;;;476273;250;28651;-77
2021/10/15 08:24:40;;;;;;;7.83;6.33;;;7.70;99.90;;;;;;476270;250;28290;-76
2021/10/15 08:26:41;;;;;;;9.63;7.10;;;7.80;99.90;;;;;;476282;250;28453;-76
2021/10/15 08:28:42;;;;;;;9.20;6.80;;;7.70;99.90;;;;;;476288;250;28075;-77
2021/10/15 08:30:44;;;;;;;9.97;8.70;;;7.80;99.90;;;;;;476193;250;29358;-76
2021/10/15 08:32:45;;;;;;;9.97;8.33;;;7.70;99.90;;;;;;476148;250;28145;-77
2021/10/15 08:34:46;;;;;;;10.27;8.00;;;7.70;99.90;;;;;;476246;250;27740;-76
2021/10/15 08:36:47;;;;;;;10.40;7.83;;;7.80;99.90;;;;;;475330;250;28003;-76
2021/10/15 08:38:49;;;;;;;11.63;9.00;;;7.80;99.90;;;;;;475206;250;27653;-76
2021/10/15 08:40:50;;;;;;;11.20;8.30;;;7.80;99.90;;;;;;475965;250;28375;-76
2021/10/15 08:42:51;;;;;;;13.70;9.03;;;7.90;99.90;;;;;;476080;250;28043;-76
2021/10/15 08:44:52;;;;;;;19.13;10.57;;;7.90;99.90;;;;;;476233;250;27989;-76
2021/10/15 08:46:54;;;;;;;10.17;8.37;;;8.00;99.90;;;;;;476182;250;27923;-76
2021/10/15 08:48:55;;;;;;;11.90;8.50;;;8.00;99.90;;;;;;476192;250;27967;-76
2021/10/15 08:50:56;;;;;;;10.00;7.47;;;8.00;99.90;;;;;;476188;250;28447;-77
2021/10/15 08:52:58;;;;;;;16.60;9.40;;;8.10;99.90;;;;;;476202;250;29213;-77
2021/10/15 08:54:59;;;;;;;12.70;9.33;;;8.20;99.90;;;;;;476197;250;28435;-76
2021/10/15 08:57:00;;;;;;;11.37;8.53;;;8.20;99.90;;;;;;476198;250;28141;-76
2021/10/15 08:59:01;;;;;;;12.13;8.00;;;8.20;99.90;;;;;;476191;250;28091;-76
2021/10/15 09:01:02;;;;;;;10.37;8.30;;;8.30;99.90;;;;;;476174;250;27886;-76
2021/10/15 09:03:04;;;;;;;9.70;7.60;;;8.50;99.90;;;;;;476199;250;27961;-76
2021/10/15 09:05:05;;;;;;;10.30;8.00;;;8.60;99.90;;;;;;476183;250;28110;-77
2021/10/15 09:07:06;;;;;;;10.03;7.67;;;8.90;99.90;;;;;;476171;250;28031;-76
2021/10/15 09:09:07;;;;;;;9.70;7.53;;;9.00;99.90;;;;;;476209;250;28056;-76
2021/10/15 09:11:09;;;;;;;9.10;7.10;;;9.20;99.90;;;;;;476191;250;27957;-77
2021/10/15 09:13:10;;;;;;;10.33;7.57;;;9.20;99.90;;;;;;476192;250;28141;-76
2021/10/15 09:15:11;;;;;;;9.67;6.67;;;9.30;99.90;;;;;;476174;250;28175;-77
2021/10/15 09:17:13;;;;;;;11.67;6.90;;;9.30;99.90;;;;;;476182;250;27731;-77
2021/10/15 09:19:14;;;;;;;7.70;6.40;;;9.40;99.90;;;;;;476190;250;28458;-76
2021/10/15 09:21:15;;;;;;;8.60;6.40;;;9.40;99.90;;;;;;476209;250;28449;-77
2021/10/15 09:23:16;;;;;;;7.90;6.63;;;9.40;99.90;;;;;;476223;250;28489;-76
2021/10/15 09:25:17;;;;;;;8.60;6.03;;;9.50;99.90;;;;;;476243;250;28406;-76
2021/10/15 09:27:19;;;;;;;7.50;5.97;;;9.50;99.90;;;;;;476217;250;27990;-76
2021/10/15 09:29:20;;;;;;;9.20;6.27;;;9.50;99.90;;;;;;476214;250;27858;-77
2021/10/15 09:31:21;;;;;;;6.70;5.33;;;9.50;99.90;;;;;;476434;249;27845;-77
2021/10/15 09:33:22;;;;;;;10.90;5.50;;;9.60;99.90;;;;;;475420;249;27934;-77
2021/10/15 09:35:24;;;;;;;5.90;5.30;;;9.70;99.90;;;;;;476202;248;28006;-76
2021/10/15 09:37:25;;;;;;;7.03;5.70;;;9.80;99.90;;;;;;476205;250;28047;-76
2021/10/15 09:39:26;;;;;;;8.97;6.57;;;9.90;99.90;;;;;;476195;250;27962;-77
2021/10/15 09:41:27;;;;;;;6.20;5.60;;;9.90;99.90;;;;;;476161;250;28019;-78
2021/10/15 09:43:29;;;;;;;6.40;5.70;;;9.90;99.90;;;;;;476182;250;28022;-76
2021/10/15 09:45:30;;;;;;;6.77;5.40;;;9.90;99.90;;;;;;476171;250;28040;-76
2021/10/15 09:47:33;;;;;;;6.43;5.53;;;10.00;99.90;;;;;;476215;250;27880;-77
2021/10/15 09:49:32;;;;;;;7.60;5.40;;;9.90;99.90;;;;;;476084;250;27827;-77
2021/10/15 09:51:34;;;;;;;8.47;5.60;;;9.80;99.90;;;;;;476171;250;27798;-77
2021/10/15 09:53:35;;;;;;;6.60;5.60;;;9.70;99.90;;;;;;476195;250;28227;-76
2021/10/15 09:55:36;;;;;;;9.67;5.80;;;9.70;99.90;;;;;;476184;250;28305;-77
2021/10/15 09:57:37;;;;;;;8.50;6.03;;;9.70;99.90;;;;;;476183;250;28442;-76
2021/10/15 09:59:39;;;;;;;6.33;4.93;;;9.70;99.90;;;;;;476152;250;29282;-77
2021/10/15 10:01:41;;;;;;;6.00;4.87;;;9.70;99.90;;;;;;476208;250;28447;-76
2021/10/15 10:03:41;;;;;;;9.97;5.60;;;9.80;99.90;;;;;;476129;250;27986;-77
2021/10/15 10:05:42;;;;;;;6.90;6.03;;;10.00;99.90;;;;;;476155;250;27948;-76
2021/10/15 10:07:44;;;;;;;6.10;5.30;;;10.20;99.90;;;;;;476195;250;28105;-77
2021/10/15 10:09:45;;;;;;;7.13;5.90;;;10.30;99.90;;;;;;476184;250;27772;-76
2021/10/15 10:11:46;;;;;;;5.77;4.70;;;10.30;99.90;;;;;;476190;250;27744;-77
2021/10/15 10:13:47;;;;;;;5.20;4.70;;;10.30;99.90;;;;;;476177;250;28089;-77
2021/10/15 10:15:49;;;;;;;5.03;4.53;;;10.30;99.90;;;;;;476042;250;28227;-77
2021/10/15 10:17:50;;;;;;;7.23;5.30;;;10.30;99.90;;;;;;476173;250;27972;-77
2021/10/15 10:19:51;;;;;;;8.83;5.00;;;10.40;99.90;;;;;;476197;250;28074;-77
2021/10/15 10:21:52;;;;;;;5.27;4.50;;;10.60;99.90;;;;;;476205;250;28449;-76
2021/10/15 10:23:54;;;;;;;5.27;4.77;;;10.80;99.90;;;;;;476204;250;28563;-76
2021/10/15 10:25:55;;;;;;;5.20;4.70;;;10.80;99.90;;;;;;476212;250;28482;-77
2021/10/15 10:27:57;;;;;;;5.27;4.77;;;10.80;99.90;;;;;;476210;250;28633;-76
2021/10/15 10:29:57;;;;;;;5.47;4.80;;;10.80;99.90;;;;;;476122;250;28201;-76
2021/10/15 10:31:59;;;;;;;5.87;5.27;;;10.70;99.90;;;;;;476175;250;28208;-76
2021/10/15 10:34:00;;;;;;;7.60;5.00;;;10.80;99.90;;;;;;476196;250;28010;-76
2021/10/15 10:36:01;;;;;;;5.93;4.73;;;10.80;99.90;;;;;;476246;250;27949;-76
2021/10/15 10:38:02;;;;;;;6.80;4.83;;;10.80;99.90;;;;;;476204;250;28092;-76
2021/10/15 10:40:04;;;;;;;5.73;4.70;;;10.80;99.90;;;;;;476187;247;28232;-77
2021/10/15 10:42:05;;;;;;;7.80;4.87;;;11.00;99.90;;;;;;476210;250;28046;-75
2021/10/15 10:44:06;;;;;;;8.97;5.43;;;11.00;99.90;;;;;;476216;250;28368;-76
2021/10/15 10:46:07;;;;;;;5.60;5.00;;;11.10;99.90;;;;;;476215;250;29485;-77
2021/10/15 10:48:09;;;;;;;5.27;4.60;;;11.10;99.90;;;;;;476243;250;28741;-76
2021/10/15 10:50:11;;;;;;;5.47;4.20;;;11.20;99.90;;;;;;476256;250;28559;-75